Time;durP1;ratioP1;P1;durP2;ratioP2;P2;SDS_P1;SDS_P2;PMS_P1;PMS_P2;Temp;Humidity;BMP_temperature;BMP_pressure;BME280_temperature;BME280_humidity;BME280_pressure;Samples;Min_cycle;Max_cycle;Signal;HPM_P1;HPM_P2
2022/03/27 00:01:05;;;;;;;17.90;10.17;;;12.50;99.90;;;;;;4146264;28;20259;-83
2022/03/27 00:03:07;;;;;;;17.87;9.13;;;12.90;99.90;;;;;;4147404;28;20193;-84
2022/03/27 00:05:10;;;;;;;17.07;9.43;;;12.40;99.90;;;;;;4146308;28;20215;-83
2022/03/27 00:07:12;;;;;;;19.97;9.83;;;12.40;99.90;;;;;;4144060;28;20231;-84
2022/03/27 00:09:15;;;;;;;18.63;9.77;;;12.40;99.90;;;;;;4155846;28;20240;-83
2022/03/27 00:11:27;;;;;;;17.87;8.87;;;12.40;99.90;;;;;;4146467;28;20211;-83
2022/03/27 00:13:29;;;;;;;17.77;9.13;;;12.40;99.90;;;;;;4146146;28;20228;-83
2022/03/27 00:15:31;;;;;;;14.57;8.67;;;12.30;99.90;;;;;;4142657;28;20212;-84
2022/03/27 00:17:34;;;;;;;15.27;7.63;;;12.30;99.90;;;;;;4138480;28;20188;-83
2022/03/27 00:19:35;;;;;;;15.33;7.73;;;12.30;99.90;;;;;;4147077;28;20240;-83
2022/03/27 00:21:38;;;;;;;13.13;7.53;;;12.40;99.90;;;;;;4143091;28;20297;-84
2022/03/27 00:23:40;;;;;;;16.07;7.87;;;12.30;99.90;;;;;;4138234;28;20273;-84
2022/03/27 00:25:45;;;;;;;13.40;7.20;;;12.20;99.90;;;;;;4133155;28;20217;-84
2022/03/27 00:27:47;;;;;;;12.77;7.33;;;12.20;99.90;;;;;;4133539;28;20253;-84
2022/03/27 00:29:50;;;;;;;15.23;7.30;;;12.20;99.90;;;;;;4134223;28;20240;-84
2022/03/27 00:31:51;;;;;;;14.50;7.17;;;12.20;99.90;;;;;;4134435;28;20651;-84
2022/03/27 00:33:53;;;;;;;11.93;6.97;;;12.20;99.90;;;;;;4134483;28;20234;-84
2022/03/27 00:35:55;;;;;;;14.93;6.87;;;12.10;99.90;;;;;;4135466;28;20223;-84
2022/03/27 00:37:57;;;;;;;13.33;7.33;;;12.10;99.90;;;;;;4150988;28;20273;-84
2022/03/27 00:39:58;;;;;;;10.50;6.50;;;12.10;99.90;;;;;;4147375;28;20239;-84
2022/03/27 00:42:02;;;;;;;14.93;7.27;;;12.10;99.90;;;;;;4146286;28;20365;-83
2022/03/27 00:44:04;;;;;;;11.80;7.30;;;12.00;99.90;;;;;;4136260;28;20234;-83
2022/03/27 00:46:06;;;;;;;16.00;7.60;;;12.00;99.90;;;;;;4127859;28;20238;-83
2022/03/27 00:48:08;;;;;;;13.17;7.13;;;12.00;99.90;;;;;;4129156;28;20606;-84
2022/03/27 00:50:10;;;;;;;13.00;6.83;;;12.00;99.90;;;;;;4128930;28;20763;-83
2022/03/27 00:52:12;;;;;;;14.60;7.40;;;12.00;99.90;;;;;;4130835;28;20782;-84
2022/03/27 00:54:14;;;;;;;14.07;7.10;;;12.00;99.90;;;;;;4134509;28;20231;-83
2022/03/27 00:56:16;;;;;;;12.93;7.53;;;11.90;99.90;;;;;;4123277;28;20228;-83
2022/03/27 00:58:19;;;;;;;13.77;7.63;;;11.90;99.90;;;;;;4132748;28;20211;-83
2022/03/27 01:00:43;;;;;;;14.13;7.60;;;11.90;99.90;;;;;;4137651;28;20254;-84
2022/03/27 01:02:44;;;;;;;14.83;7.97;;;11.90;99.90;;;;;;4131611;28;20643;-84
2022/03/27 01:04:47;;;;;;;14.47;7.33;;;11.90;99.90;;;;;;4128679;28;20212;-83
2022/03/27 01:06:49;;;;;;;14.53;7.63;;;12.10;99.90;;;;;;4127826;28;20215;-83
2022/03/27 01:11:17;;;;;;;12.57;7.47;;;11.80;99.90;;;;;;4112543;28;20215;-84
2022/03/27 01:13:21;;;;;;;13.97;7.63;;;11.90;99.90;;;;;;4129438;28;20263;-84
2022/03/27 01:15:28;;;;;;;15.03;8.10;;;11.80;99.90;;;;;;4135477;28;20282;-84
2022/03/27 01:17:31;;;;;;;12.33;7.23;;;11.80;99.90;;;;;;4134929;28;20213;-83
2022/03/27 01:19:33;;;;;;;11.60;7.13;;;11.80;99.90;;;;;;4147480;28;20270;-83
2022/03/27 01:21:38;;;;;;;13.83;7.70;;;11.70;99.90;;;;;;4131376;28;20699;-84
2022/03/27 01:23:40;;;;;;;13.73;7.43;;;11.80;99.90;;;;;;4131152;28;20229;-83
2022/03/27 01:25:45;;;;;;;13.60;7.57;;;11.70;99.90;;;;;;4136322;28;20269;-83
2022/03/27 01:27:47;;;;;;;13.73;7.40;;;11.70;99.90;;;;;;4136997;28;20235;-83
2022/03/27 01:29:49;;;;;;;17.17;7.80;;;11.70;99.90;;;;;;4130162;28;20234;-83
2022/03/27 01:31:53;;;;;;;14.67;7.70;;;11.70;99.90;;;;;;4130933;28;20302;-83
2022/03/27 01:33:55;;;;;;;14.73;8.00;;;11.60;99.90;;;;;;4130991;28;20258;-83
2022/03/27 01:35:57;;;;;;;12.40;6.90;;;11.60;99.90;;;;;;4130715;28;20277;-84
2022/03/27 01:38:00;;;;;;;13.33;7.30;;;11.70;99.90;;;;;;4131266;28;20214;-83
2022/03/27 01:40:02;;;;;;;13.43;7.23;;;11.50;99.90;;;;;;4130142;28;20251;-84
2022/03/27 01:42:05;;;;;;;14.30;7.57;;;11.50;99.90;;;;;;4131393;28;20224;-83
2022/03/27 01:44:08;;;;;;;14.30;7.67;;;11.50;99.90;;;;;;4130601;28;20749;-83
2022/03/27 01:46:10;;;;;;;14.83;7.50;;;11.50;99.90;;;;;;4132118;28;20222;-83
2022/03/27 01:48:12;;;;;;;14.13;7.30;;;11.50;99.90;;;;;;4134916;28;20229;-84
2022/03/27 01:50:14;;;;;;;12.40;7.33;;;11.40;99.90;;;;;;4140411;28;20246;-83
2022/03/27 01:52:16;;;;;;;15.10;7.70;;;11.40;99.90;;;;;;4139919;28;20214;-83
2022/03/27 01:54:19;;;;;;;13.27;7.30;;;11.40;99.90;;;;;;4146675;28;20234;-83
2022/03/27 01:56:21;;;;;;;14.33;7.47;;;11.40;99.90;;;;;;4127834;28;20230;-83
2022/03/27 01:58:23;;;;;;;14.20;7.77;;;11.40;99.90;;;;;;4141379;28;20286;-83
2022/03/27 02:00:24;;;;;;;14.73;7.83;;;11.30;99.90;;;;;;4143695;28;20324;-84
2022/03/27 02:02:26;;;;;;;15.27;7.97;;;11.30;99.90;;;;;;4136961;28;20221;-83
2022/03/27 02:04:28;;;;;;;15.13;8.13;;;11.30;99.90;;;;;;4137254;28;20610;-84
2022/03/27 02:06:30;;;;;;;16.93;9.10;;;11.20;99.90;;;;;;4130597;28;20230;-83
2022/03/27 02:08:33;;;;;;;15.17;8.13;;;11.20;99.90;;;;;;4130492;28;20227;-83
2022/03/27 02:10:36;;;;;;;15.67;8.07;;;11.20;99.90;;;;;;4115584;28;20293;-83
2022/03/27 02:12:38;;;;;;;13.30;7.60;;;11.20;99.90;;;;;;4126218;28;20301;-83
2022/03/27 02:14:40;;;;;;;15.73;8.53;;;11.10;99.90;;;;;;4132879;28;20226;-83
2022/03/27 02:16:42;;;;;;;18.57;9.33;;;11.10;99.90;;;;;;4139353;28;20221;-83
2022/03/27 02:18:44;;;;;;;15.23;8.13;;;11.00;99.90;;;;;;4143281;28;20586;-84
2022/03/27 02:20:46;;;;;;;16.50;8.77;;;11.00;99.90;;;;;;4136345;28;20217;-83
2022/03/27 02:22:48;;;;;;;15.70;8.27;;;11.00;99.90;;;;;;4144506;28;20236;-83
2022/03/27 02:24:50;;;;;;;14.70;8.60;;;11.10;99.90;;;;;;4141406;28;20225;-84
2022/03/27 02:26:53;;;;;;;14.40;8.57;;;10.90;99.90;;;;;;4130310;28;20237;-83
2022/03/27 02:28:55;;;;;;;16.03;9.10;;;10.90;99.90;;;;;;4130763;28;20237;-84
2022/03/27 02:30:57;;;;;;;16.53;8.83;;;11.20;99.90;;;;;;4129263;28;20684;-83
2022/03/27 02:32:59;;;;;;;19.20;9.57;;;10.90;99.90;;;;;;4129867;28;20232;-83
2022/03/27 02:35:01;;;;;;;15.57;8.70;;;10.80;99.90;;;;;;4129850;28;20214;-84
2022/03/27 02:37:04;;;;;;;16.23;8.30;;;10.80;99.90;;;;;;4130032;28;20214;-83
2022/03/27 02:39:05;;;;;;;15.23;8.80;;;10.80;99.90;;;;;;4130093;28;20229;-83
2022/03/27 02:41:07;;;;;;;15.10;8.53;;;10.80;99.90;;;;;;4129758;28;20221;-84
2022/03/27 02:43:11;;;;;;;17.20;9.20;;;10.70;99.90;;;;;;4128812;28;20222;-84
2022/03/27 02:45:13;;;;;;;14.83;8.27;;;10.70;99.90;;;;;;4129829;28;20693;-83
2022/03/27 02:47:15;;;;;;;15.90;8.47;;;10.70;99.90;;;;;;4132362;28;20219;-83
2022/03/27 02:49:17;;;;;;;16.30;8.80;;;10.70;99.90;;;;;;4129720;28;20242;-83
2022/03/27 02:51:19;;;;;;;17.43;8.87;;;10.60;99.90;;;;;;4128787;28;20214;-83
2022/03/27 02:53:20;;;;;;;15.37;8.20;;;10.50;99.90;;;;;;4134369;28;20248;-83
2022/03/27 02:55:24;;;;;;;17.30;9.00;;;10.60;99.90;;;;;;4131599;28;20257;-83
2022/03/27 02:57:26;;;;;;;16.13;9.20;;;10.50;99.90;;;;;;4137274;28;20217;-84
2022/03/27 02:59:30;;;;;;;14.73;8.27;;;10.50;99.90;;;;;;4142463;28;20249;-83
2022/03/27 03:01:32;;;;;;;15.23;9.17;;;10.50;99.90;;;;;;4137290;28;20216;-83
2022/03/27 03:03:34;;;;;;;16.63;8.83;;;10.50;99.90;;;;;;4144854;28;20287;-83
2022/03/27 03:05:37;;;;;;;16.13;8.60;;;10.40;99.90;;;;;;4145905;28;20236;-83
2022/03/27 03:07:41;;;;;;;15.87;8.50;;;10.40;99.90;;;;;;4149500;28;20216;-83
2022/03/27 03:09:43;;;;;;;14.93;8.40;;;10.40;99.90;;;;;;4131411;28;20675;-83
2022/03/27 03:11:45;;;;;;;16.97;8.70;;;10.30;99.90;;;;;;4132613;28;20208;-83
2022/03/27 03:13:47;;;;;;;15.53;8.47;;;10.40;99.90;;;;;;4130279;28;20207;-84
2022/03/27 03:15:52;;;;;;;16.03;9.07;;;10.30;99.90;;;;;;4129043;28;20229;-83
2022/03/27 03:17:54;;;;;;;15.23;8.37;;;10.30;99.90;;;;;;4129424;28;20225;-83
2022/03/27 03:19:56;;;;;;;14.37;8.40;;;10.20;99.90;;;;;;4129796;28;20287;-83
2022/03/27 03:21:58;;;;;;;14.70;9.07;;;10.20;99.90;;;;;;4129123;28;20224;-83
2022/03/27 03:24:00;;;;;;;16.47;8.70;;;10.20;99.90;;;;;;4140239;28;20255;-83
2022/03/27 03:26:01;;;;;;;15.20;8.27;;;10.20;99.90;;;;;;4129908;28;20827;-83
2022/03/27 03:28:03;;;;;;;17.73;9.07;;;10.10;99.90;;;;;;4128720;28;20219;-83
2022/03/27 03:30:07;;;;;;;16.13;8.53;;;10.00;99.90;;;;;;4128142;28;20248;-83
2022/03/27 03:32:10;;;;;;;16.70;9.10;;;10.00;99.90;;;;;;4128583;28;20631;-84
2022/03/27 03:34:12;;;;;;;17.67;9.30;;;10.00;99.90;;;;;;4129626;28;20226;-83
2022/03/27 03:36:15;;;;;;;19.83;10.00;;;9.90;99.90;;;;;;4129411;28;20243;-83
2022/03/27 03:38:17;;;;;;;17.87;9.17;;;9.90;99.90;;;;;;4128815;28;20729;-83
2022/03/27 03:40:19;;;;;;;19.33;9.80;;;9.90;99.90;;;;;;4129477;28;20239;-83
2022/03/27 03:42:21;;;;;;;15.63;9.47;;;9.80;99.90;;;;;;4136404;28;20220;-83
2022/03/27 03:44:23;;;;;;;19.60;9.33;;;9.80;99.90;;;;;;4146149;28;20220;-83
2022/03/27 03:46:25;;;;;;;16.23;9.03;;;9.80;99.90;;;;;;4145672;28;20488;-84
2022/03/27 03:48:28;;;;;;;17.30;9.40;;;9.70;99.90;;;;;;4140442;28;20204;-84
2022/03/27 03:50:33;;;;;;;18.10;9.37;;;9.70;99.90;;;;;;4129616;28;20803;-84
2022/03/27 03:52:34;;;;;;;17.73;9.67;;;9.60;99.90;;;;;;4131067;28;20219;-83
2022/03/27 03:54:36;;;;;;;14.97;8.47;;;9.60;99.90;;;;;;4128956;28;20565;-83
2022/03/27 03:56:39;;;;;;;15.07;8.20;;;9.60;99.90;;;;;;4131164;28;20212;-83
2022/03/27 03:58:41;;;;;;;16.67;8.90;;;9.70;99.90;;;;;;4144690;28;20226;-82
2022/03/27 04:00:46;;;;;;;16.87;8.40;;;9.50;99.90;;;;;;4135424;28;20240;-83
2022/03/27 04:02:48;;;;;;;18.13;8.97;;;9.40;99.90;;;;;;4129059;28;20238;-84
2022/03/27 04:04:51;;;;;;;15.33;8.60;;;9.50;99.90;;;;;;4129716;28;20228;-83
2022/03/27 04:06:53;;;;;;;15.27;8.40;;;9.40;99.90;;;;;;4125350;28;20224;-83
2022/03/27 04:08:55;;;;;;;16.67;8.57;;;9.30;99.90;;;;;;4120989;28;20255;-83
2022/03/27 04:10:57;;;;;;;16.43;8.30;;;9.30;99.90;;;;;;4128019;28;20923;-83
2022/03/27 04:12:58;;;;;;;16.30;8.37;;;9.20;99.90;;;;;;4132121;28;20604;-83
2022/03/27 04:15:00;;;;;;;16.80;8.30;;;9.30;99.90;;;;;;4128368;28;20478;-84
2022/03/27 04:17:02;;;;;;;14.37;8.23;;;9.20;99.90;;;;;;4126834;28;20845;-84
2022/03/27 04:19:05;;;;;;;14.27;8.17;;;9.10;99.90;;;;;;4128945;28;20212;-84
2022/03/27 04:21:09;;;;;;;15.43;8.00;;;9.10;99.90;;;;;;4128704;28;20506;-83
2022/03/27 04:23:11;;;;;;;15.03;8.20;;;9.10;99.90;;;;;;4132492;28;20467;-83
2022/03/27 04:25:14;;;;;;;14.23;7.90;;;9.30;99.90;;;;;;4128251;28;20444;-83
2022/03/27 04:27:16;;;;;;;15.80;8.30;;;9.00;99.90;;;;;;4130412;28;20227;-83
2022/03/27 04:29:18;;;;;;;13.80;8.00;;;9.20;99.90;;;;;;4128852;28;20254;-83
2022/03/27 04:31:20;;;;;;;15.07;8.27;;;8.90;99.90;;;;;;4129945;28;20476;-83
2022/03/27 04:33:22;;;;;;;13.97;7.90;;;8.90;99.90;;;;;;4128314;28;20204;-83
2022/03/27 04:35:24;;;;;;;13.57;7.73;;;8.80;99.90;;;;;;4127643;28;20684;-84
2022/03/27 04:37:27;;;;;;;13.93;7.77;;;8.80;99.90;;;;;;4128779;28;20728;-83
2022/03/27 04:39:29;;;;;;;14.13;8.03;;;8.80;99.90;;;;;;4130763;28;20236;-82
2022/03/27 04:41:31;;;;;;;15.73;8.17;;;8.70;99.90;;;;;;4128405;28;20236;-83
2022/03/27 04:43:33;;;;;;;15.20;8.00;;;8.70;99.90;;;;;;4128316;28;21079;-83
2022/03/27 04:45:35;;;;;;;14.47;7.50;;;8.60;99.90;;;;;;4137649;28;20494;-83
2022/03/27 04:47:37;;;;;;;14.93;7.70;;;8.60;99.90;;;;;;4130726;28;20459;-83
2022/03/27 04:49:38;;;;;;;15.23;8.00;;;8.60;99.90;;;;;;4131226;28;20491;-84
2022/03/27 04:51:40;;;;;;;15.27;7.87;;;8.50;99.90;;;;;;4131023;28;20466;-83
2022/03/27 04:53:44;;;;;;;14.13;7.53;;;8.90;99.90;;;;;;4139400;28;20470;-84
2022/03/27 04:55:45;;;;;;;13.40;7.40;;;8.50;99.90;;;;;;4115441;28;20502;-83
2022/03/27 04:57:48;;;;;;;15.13;7.90;;;8.40;99.90;;;;;;4115444;28;20463;-83
2022/03/27 04:59:50;;;;;;;14.60;8.17;;;8.40;99.90;;;;;;4134803;23;20531;-89
2022/03/27 05:01:52;;;;;;;13.33;6.87;;;8.60;99.90;;;;;;4135414;28;20517;-88
2022/03/27 05:03:53;;;;;;;14.43;7.83;;;8.30;99.90;;;;;;4132018;28;20465;-87
2022/03/27 05:05:55;;;;;;;14.87;7.37;;;8.30;99.90;;;;;;4131807;28;20464;-88
2022/03/27 05:07:58;;;;;;;13.77;7.07;;;8.60;99.90;;;;;;4131007;28;20450;-89
2022/03/27 05:10:01;;;;;;;13.47;7.30;;;8.20;99.90;;;;;;4128050;28;20530;-88
2022/03/27 05:12:04;;;;;;;15.87;8.03;;;7.90;99.90;;;;;;4119992;28;20894;-89
2022/03/27 05:14:06;;;;;;;17.13;8.80;;;8.20;99.90;;;;;;4130900;28;20467;-88
2022/03/27 05:16:07;;;;;;;15.43;7.90;;;8.60;99.90;;;;;;4130409;28;20528;-88
2022/03/27 05:18:10;;;;;;;14.80;8.00;;;8.10;99.90;;;;;;4117846;28;20497;-87
2022/03/27 05:20:12;;;;;;;14.13;7.63;;;8.50;99.90;;;;;;4115060;28;20969;-90
2022/03/27 05:22:15;;;;;;;13.77;7.60;;;8.00;99.90;;;;;;4133971;28;20963;-88
2022/03/27 05:24:17;;;;;;;12.57;7.43;;;8.10;99.90;;;;;;4122107;28;20448;-88
2022/03/27 05:26:20;;;;;;;14.97;7.90;;;8.00;99.90;;;;;;4131418;28;20459;-88
2022/03/27 05:28:22;;;;;;;14.70;7.93;;;7.80;99.90;;;;;;4116618;28;20503;-91
2022/03/27 05:30:27;;;;;;;16.27;7.97;;;8.00;99.90;;;;;;4114295;28;20492;-90
2022/03/27 05:32:29;;;;;;;13.30;7.53;;;8.00;99.90;;;;;;4114376;28;21008;-87
2022/03/27 05:34:33;;;;;;;13.67;7.63;;;8.30;99.90;;;;;;4129053;28;20947;-90
2022/03/27 05:36:35;;;;;;;17.10;7.30;;;7.90;99.90;;;;;;4128093;28;20475;-88
2022/03/27 05:38:38;;;;;;;14.93;7.73;;;7.90;99.90;;;;;;4135273;28;20460;-88
2022/03/27 05:40:40;;;;;;;17.23;7.97;;;8.60;99.90;;;;;;4132893;28;20553;-88
2022/03/27 05:42:43;;;;;;;13.47;7.23;;;7.90;99.90;;;;;;4131505;28;20455;-89
2022/03/27 05:44:45;;;;;;;15.20;8.37;;;7.70;99.90;;;;;;4128785;28;20475;-89
2022/03/27 05:46:47;;;;;;;12.47;7.73;;;7.80;99.90;;;;;;4126541;28;20474;-90
2022/03/27 05:48:49;;;;;;;13.33;7.43;;;7.80;99.90;;;;;;4131958;28;20534;-88
2022/03/27 05:50:51;;;;;;;14.93;8.07;;;7.80;99.90;;;;;;4131792;28;20494;-89
2022/03/27 05:52:54;;;;;;;15.70;7.90;;;7.80;99.90;;;;;;4133354;28;20986;-90
2022/03/27 05:54:57;;;;;;;14.87;7.27;;;7.80;99.90;;;;;;4135748;28;20467;-91
2022/03/27 05:56:59;;;;;;;15.13;8.13;;;7.80;99.90;;;;;;4148952;28;20460;-90
2022/03/27 05:59:02;;;;;;;14.17;8.13;;;8.00;99.90;;;;;;4150968;28;20464;-89
2022/03/27 06:01:04;;;;;;;13.23;7.60;;;7.90;99.90;;;;;;4150035;28;20470;-91
2022/03/27 06:03:06;;;;;;;12.37;7.13;;;7.80;99.90;;;;;;4145256;28;20476;-90
2022/03/27 06:05:09;;;;;;;15.23;8.03;;;7.70;99.90;;;;;;4142463;28;20502;-90
2022/03/27 06:07:11;;;;;;;12.67;7.57;;;7.70;99.90;;;;;;4136013;28;20470;-90
2022/03/27 06:09:13;;;;;;;13.57;7.40;;;7.70;99.90;;;;;;4137278;28;20476;-89
2022/03/27 06:11:15;;;;;;;15.43;8.30;;;7.70;99.90;;;;;;4130859;28;20491;-88
2022/03/27 06:13:19;;;;;;;15.93;7.87;;;7.70;99.90;;;;;;4115191;28;20494;-89
2022/03/27 06:15:23;;;;;;;14.83;8.47;;;7.70;99.90;;;;;;4127758;28;20505;-89
2022/03/27 06:17:26;;;;;;;16.13;8.40;;;7.70;99.90;;;;;;4126688;28;20482;-89
2022/03/27 06:19:30;;;;;;;14.83;8.13;;;7.90;99.90;;;;;;4139032;28;20911;-89
2022/03/27 06:21:32;;;;;;;16.50;8.17;;;7.90;99.90;;;;;;4131650;28;20454;-89
2022/03/27 06:23:33;;;;;;;13.07;7.73;;;7.70;99.90;;;;;;4131230;28;20467;-89
2022/03/27 06:25:38;;;;;;;19.10;8.70;;;7.70;99.90;;;;;;4130706;28;20467;-89
2022/03/27 06:27:42;;;;;;;13.47;7.60;;;7.70;99.90;;;;;;4114874;28;20488;-89
2022/03/27 06:29:44;;;;;;;14.87;8.13;;;9.00;99.90;;;;;;4140058;28;20521;-89
2022/03/27 06:31:48;;;;;;;13.93;7.70;;;7.50;99.90;;;;;;4149332;28;20462;-88
2022/03/27 06:33:49;;;;;;;15.40;7.87;;;7.70;99.90;;;;;;4147374;28;21030;-88
2022/03/27 06:35:51;;;;;;;13.30;7.70;;;7.50;99.90;;;;;;4135146;28;20478;-89
2022/03/27 06:37:54;;;;;;;13.50;7.80;;;7.80;99.90;;;;;;4131100;28;20473;-89
2022/03/27 06:39:56;;;;;;;13.87;7.43;;;9.10;99.90;;;;;;4145357;28;20490;-89
2022/03/27 06:41:58;;;;;;;13.87;7.93;;;7.70;99.90;;;;;;4147187;28;20484;-89
2022/03/27 06:44:00;;;;;;;14.33;7.53;;;7.80;99.90;;;;;;4121731;28;20475;-89
2022/03/27 06:46:02;;;;;;;16.40;8.33;;;7.80;99.90;;;;;;4122311;28;20481;-90
2022/03/27 06:48:06;;;;;;;13.37;7.30;;;7.90;99.90;;;;;;4140649;28;20489;-89
2022/03/27 06:50:09;;;;;;;13.83;7.60;;;7.80;99.90;;;;;;4128591;28;20530;-88
2022/03/27 06:52:12;;;;;;;14.10;7.17;;;7.80;99.90;;;;;;4132537;28;20508;-88
2022/03/27 06:54:14;;;;;;;13.23;7.13;;;8.40;99.90;;;;;;4126752;28;20487;-89
2022/03/27 06:56:16;;;;;;;13.30;7.40;;;8.40;99.90;;;;;;4130393;28;20457;-88
2022/03/27 06:58:17;;;;;;;16.53;7.97;;;7.90;99.90;;;;;;4116078;28;20470;-89
2022/03/27 07:05:00;;;;;;;12.93;7.40;;;7.90;99.90;;;;;;4129089;28;20446;-89
2022/03/27 07:07:02;;;;;;;13.40;7.40;;;8.30;99.90;;;;;;4129112;28;20467;-89
2022/03/27 07:09:04;;;;;;;12.10;7.27;;;8.00;99.90;;;;;;4127703;28;20519;-89
2022/03/27 07:11:06;;;;;;;12.80;7.43;;;8.00;99.90;;;;;;4128633;28;20495;-88
2022/03/27 07:13:09;;;;;;;11.97;7.00;;;8.00;99.90;;;;;;4129308;28;20530;-89
2022/03/27 07:15:16;;;;;;;14.30;8.10;;;8.00;99.90;;;;;;4128822;28;20464;-89
2022/03/27 07:17:18;;;;;;;15.53;7.93;;;8.00;99.90;;;;;;4127492;28;20489;-89
2022/03/27 07:19:20;;;;;;;15.73;8.30;;;8.00;99.90;;;;;;4129952;28;20459;-89
2022/03/27 07:21:24;;;;;;;13.50;7.60;;;7.90;99.90;;;;;;4130087;28;20471;-88
2022/03/27 07:23:25;;;;;;;12.43;7.30;;;8.10;99.90;;;;;;4125490;28;20470;-89
2022/03/27 07:25:29;;;;;;;14.77;8.30;;;8.10;99.90;;;;;;4131859;28;20223;-89
2022/03/27 07:27:31;;;;;;;14.50;7.57;;;8.10;99.90;;;;;;4129959;28;20471;-89
2022/03/27 07:29:35;;;;;;;13.80;7.13;;;8.10;99.90;;;;;;4140396;28;20483;-89
2022/03/27 07:31:37;;;;;;;12.90;7.53;;;8.00;99.90;;;;;;4139345;28;20519;-88
2022/03/27 07:33:39;;;;;;;13.67;7.80;;;8.20;99.90;;;;;;4136144;28;20463;-89
2022/03/27 07:35:48;;;;;;;14.23;7.73;;;8.20;99.90;;;;;;4124302;28;20472;-89
2022/03/27 07:37:52;;;;;;;13.70;7.03;;;8.20;99.90;;;;;;4143236;28;20463;-88
2022/03/27 07:39:57;;;;;;;12.23;7.57;;;8.40;99.90;;;;;;4136669;28;20506;-88
2022/03/27 07:41:58;;;;;;;13.90;7.20;;;8.30;99.90;;;;;;4145985;28;20459;-89
2022/03/27 07:44:00;;;;;;;12.73;7.07;;;8.30;99.90;;;;;;4127781;28;20499;-89
2022/03/27 07:46:02;;;;;;;9.80;6.90;;;8.30;99.90;;;;;;4114255;28;20220;-89
2022/03/27 07:48:05;;;;;;;12.27;7.13;;;8.40;99.90;;;;;;4119364;28;20538;-89
2022/03/27 07:50:09;;;;;;;12.40;7.00;;;8.30;99.90;;;;;;4129027;28;20522;-89
2022/03/27 07:52:10;;;;;;;12.90;7.13;;;8.40;99.90;;;;;;4124732;28;20507;-89
2022/03/27 07:54:16;;;;;;;12.97;7.17;;;8.40;99.90;;;;;;4112291;28;20241;-89
2022/03/27 07:56:17;;;;;;;13.10;7.23;;;8.50;99.90;;;;;;4113062;28;20209;-89
2022/03/27 07:58:19;;;;;;;11.80;6.73;;;8.60;99.90;;;;;;4127864;28;20534;-89
2022/03/27 08:00:26;;;;;;;14.43;7.90;;;8.50;99.90;;;;;;4137526;28;20498;-89
2022/03/27 08:02:28;;;;;;;13.17;7.80;;;8.60;99.90;;;;;;4112543;28;20221;-89
2022/03/27 08:04:30;;;;;;;13.20;7.40;;;8.60;99.90;;;;;;4112155;28;20440;-89
2022/03/27 08:06:36;;;;;;;12.80;7.50;;;8.60;99.90;;;;;;4127882;28;20563;-89
2022/03/27 08:08:43;;;;;;;10.93;7.00;;;8.70;99.90;;;;;;4129134;28;20243;-89
2022/03/27 08:10:46;;;;;;;11.87;6.80;;;8.70;99.90;;;;;;4122172;28;20259;-89
2022/03/27 08:12:48;;;;;;;11.50;7.10;;;8.80;99.90;;;;;;4138672;28;20220;-89
2022/03/27 08:14:50;;;;;;;12.03;6.80;;;9.30;99.90;;;;;;4145323;28;20262;-89
2022/03/27 08:16:55;;;;;;;11.40;6.57;;;8.90;99.90;;;;;;4134662;28;20208;-89
2022/03/27 08:18:57;;;;;;;11.10;6.43;;;8.90;99.90;;;;;;4121233;28;20470;-89
2022/03/27 08:20:59;;;;;;;13.57;6.73;;;9.30;99.90;;;;;;4129438;28;20228;-89
2022/03/27 08:23:04;;;;;;;9.53;6.63;;;9.00;99.90;;;;;;4132064;28;20223;-89
2022/03/27 08:25:07;;;;;;;10.70;6.93;;;9.00;99.90;;;;;;4131721;28;20248;-89
2022/03/27 08:27:10;;;;;;;10.97;6.93;;;9.10;99.90;;;;;;4126925;28;20225;-89
2022/03/27 08:29:11;;;;;;;11.13;6.80;;;10.20;99.90;;;;;;4122479;28;20208;-89
2022/03/27 08:31:13;;;;;;;11.97;6.43;;;9.10;99.90;;;;;;4131034;28;20244;-89
2022/03/27 08:33:16;;;;;;;10.83;6.37;;;9.20;99.90;;;;;;4130998;28;20317;-89
2022/03/27 08:35:18;;;;;;;11.50;6.90;;;9.30;99.90;;;;;;4131546;28;20219;-89
2022/03/27 08:37:20;;;;;;;9.03;5.83;;;9.30;99.90;;;;;;4126674;28;20714;-89
2022/03/27 08:39:25;;;;;;;10.97;6.13;;;9.30;99.90;;;;;;4130696;28;20213;-89
2022/03/27 08:41:28;;;;;;;9.30;5.60;;;9.40;99.90;;;;;;4130467;28;20213;-89
2022/03/27 08:43:34;;;;;;;9.77;5.83;;;9.50;99.90;;;;;;4132027;28;20704;-89
2022/03/27 08:45:36;;;;;;;10.90;6.40;;;9.50;99.90;;;;;;4132331;28;20288;-89
2022/03/27 08:47:40;;;;;;;11.40;5.50;;;9.50;99.90;;;;;;4122887;28;20217;-89
2022/03/27 08:49:47;;;;;;;10.00;5.30;;;9.50;99.90;;;;;;4132461;28;20240;-89
2022/03/27 08:51:57;;;;;;;10.20;5.63;;;9.50;99.90;;;;;;4132477;28;20641;-89
2022/03/27 08:54:03;;;;;;;10.90;5.70;;;10.20;99.90;;;;;;4124325;28;20212;-89
2022/03/27 08:56:07;;;;;;;10.37;5.90;;;9.60;99.90;;;;;;4115431;28;20227;-89
2022/03/27 08:58:12;;;;;;;8.67;5.63;;;9.70;99.90;;;;;;4124139;28;20625;-89
2022/03/27 09:00:16;;;;;;;10.00;5.87;;;9.80;99.90;;;;;;4132354;28;20288;-89
2022/03/27 09:02:19;;;;;;;10.40;6.20;;;9.80;99.90;;;;;;4126381;28;20218;-89
2022/03/27 09:04:21;;;;;;;10.47;5.97;;;9.80;99.90;;;;;;4143428;28;20286;-89
2022/03/27 09:06:25;;;;;;;10.07;6.10;;;9.90;99.90;;;;;;4141850;28;20230;-89
2022/03/27 09:08:32;;;;;;;9.10;5.50;;;9.90;99.90;;;;;;4146930;28;20212;-89
2022/03/27 09:10:35;;;;;;;9.67;5.47;;;10.00;99.90;;;;;;4141887;28;20625;-89
2022/03/27 09:12:37;;;;;;;8.73;5.37;;;10.00;99.90;;;;;;4121839;28;20219;-89
2022/03/27 09:14:42;;;;;;;9.73;5.90;;;10.10;99.90;;;;;;4117411;28;20679;-89
2022/03/27 09:17:04;;;;;;;8.60;5.53;;;10.10;99.90;;;;;;4126887;28;20288;-89
2022/03/27 09:19:06;;;;;;;9.93;5.57;;;10.20;99.90;;;;;;4125154;28;20273;-89
2022/03/27 09:21:08;;;;;;;9.37;5.43;;;10.20;99.90;;;;;;4133187;28;20241;-89
2022/03/27 09:23:15;;;;;;;9.23;5.50;;;10.30;99.90;;;;;;4134249;28;20648;-89
2022/03/27 09:25:18;;;;;;;8.80;5.20;;;10.30;99.90;;;;;;4133117;28;20214;-90
2022/03/27 09:27:30;;;;;;;8.90;5.33;;;10.40;99.90;;;;;;4133278;28;20589;-89
2022/03/27 09:30:06;;;;;;;7.73;5.13;;;10.40;99.90;;;;;;4133808;28;20312;-89
2022/03/27 09:32:09;;;;;;;10.03;5.70;;;10.50;99.90;;;;;;4135510;28;20963;-89
2022/03/27 09:34:11;;;;;;;10.53;5.77;;;10.60;99.90;;;;;;4135471;28;20289;-89
2022/03/27 09:36:15;;;;;;;8.67;5.23;;;10.70;99.90;;;;;;4138672;28;20690;-90
2022/03/27 09:38:20;;;;;;;9.33;5.63;;;10.80;99.90;;;;;;4139883;28;20218;-89
2022/03/27 09:40:22;;;;;;;7.73;4.83;;;10.80;99.90;;;;;;4142378;28;20223;-89
2022/03/27 09:42:24;;;;;;;7.73;4.83;;;11.00;99.90;;;;;;4144666;28;20206;-89
2022/03/27 09:44:37;;;;;;;7.27;4.63;;;10.80;99.90;;;;;;4136887;28;20222;-89
2022/03/27 09:46:59;;;;;;;6.80;4.67;;;11.20;99.90;;;;;;4129042;28;20218;-89
2022/03/27 09:49:03;;;;;;;7.47;4.30;;;11.10;99.90;;;;;;4130272;28;20210;-89
2022/03/27 09:51:04;;;;;;;6.97;4.20;;;11.20;99.90;;;;;;4135560;28;20249;-89
2022/03/27 09:53:21;;;;;;;6.83;4.30;;;11.20;99.90;;;;;;4125135;28;20273;-89
2022/03/27 09:55:23;;;;;;;5.97;3.90;;;11.60;99.90;;;;;;4137129;28;20226;-90
2022/03/27 09:57:27;;;;;;;5.67;3.80;;;11.20;99.90;;;;;;4148882;28;20774;-90
2022/03/27 09:59:32;;;;;;;7.47;4.40;;;11.50;99.90;;;;;;4148810;28;20262;-91
2022/03/27 10:01:34;;;;;;;6.73;4.43;;;11.50;99.90;;;;;;4147208;28;20577;-89
2022/03/27 10:03:37;;;;;;;6.63;4.20;;;11.50;99.90;;;;;;4138203;28;20231;-89
2022/03/27 10:05:40;;;;;;;6.93;4.20;;;11.50;99.90;;;;;;4132372;28;20207;-88
2022/03/27 10:07:43;;;;;;;6.50;4.60;;;11.60;99.90;;;;;;4131251;28;20235;-89
2022/03/27 10:09:45;;;;;;;6.40;4.00;;;11.60;99.90;;;;;;4130519;28;20335;-89
2022/03/27 10:11:51;;;;;;;6.40;4.30;;;11.70;99.90;;;;;;4129827;28;20633;-89
2022/03/27 10:13:53;;;;;;;6.27;4.30;;;11.80;99.90;;;;;;4131199;28;20224;-90
2022/03/27 10:15:59;;;;;;;6.90;4.50;;;11.80;99.90;;;;;;4141999;28;20208;-89
2022/03/27 10:18:10;;;;;;;6.37;4.07;;;12.00;99.90;;;;;;4125199;28;20228;-90
2022/03/27 10:20:16;;;;;;;7.83;4.30;;;12.00;99.90;;;;;;4125100;28;20556;-90
2022/03/27 10:22:21;;;;;;;6.33;4.27;;;12.40;99.90;;;;;;4130904;28;20231;-89
2022/03/27 10:24:27;;;;;;;6.67;4.20;;;12.10;99.90;;;;;;4113752;28;20240;-90
2022/03/27 10:26:31;;;;;;;7.57;4.70;;;12.30;99.90;;;;;;4128490;28;20303;-90
2022/03/27 10:28:34;;;;;;;6.90;4.40;;;12.40;99.90;;;;;;4130580;28;20215;-89
2022/03/27 10:30:38;;;;;;;6.80;4.40;;;12.30;99.90;;;;;;4129186;28;20240;-90
2022/03/27 10:32:41;;;;;;;6.37;4.43;;;12.50;99.90;;;;;;4130548;28;20371;-90
2022/03/27 10:34:51;;;;;;;8.07;5.27;;;12.50;99.90;;;;;;4135721;28;20561;-90
2022/03/27 10:37:00;;;;;;;7.60;5.10;;;12.60;99.90;;;;;;4130579;28;20204;-90
2022/03/27 10:39:11;;;;;;;9.20;5.10;;;12.70;99.90;;;;;;4114712;28;20353;-89
2022/03/27 10:41:17;;;;;;;7.33;4.83;;;12.80;99.90;;;;;;4124813;28;20208;-89
2022/03/27 10:43:27;;;;;;;7.87;5.00;;;12.90;99.90;;;;;;4130131;28;20204;-89
2022/03/27 10:45:30;;;;;;;5.70;4.07;;;13.00;99.90;;;;;;4129467;28;20231;-89